< < Back
Terminal Aerodrome Forecast


Current Version              Previous Versions:   1  2  3  4  5  6  7  8  9  

Terminal Aerodrome Forecast

170
FTUS42 KTAE 291720
TAFDHN
TAF
KDHN 291720Z 2918/3018 14007KT P6SM SCT050=

Latest METAR

657
SAUS70 KWBC 301800 RRF
MTRDHN
METAR KDHN 301753Z 13006KT 10SM FEW045 SCT065 30/18 A3014 RMK AO2 SLP201
T03000178 10300 20211 58009


USA.gov is the U.S. government's official web portal to all federal, state and local government web resources and services.